createdAt,value
2023-05-14T00:00:31.220Z,76.0926
2023-05-14T00:01:33.830Z,73.2516
2023-05-14T00:02:36.499Z,73.6311
2023-05-14T00:03:39.080Z,73.0233
2023-05-14T00:04:41.751Z,72.5146
2023-05-14T00:05:44.233Z,73.9775
2023-05-14T00:06:46.874Z,73.5299
2023-05-14T00:09:33.349Z,69.8831
2023-05-14T00:10:35.948Z,77.3113
2023-05-14T00:11:38.569Z,75.7008
2023-05-14T00:12:41.176Z,76.7525
2023-05-14T00:13:43.837Z,75.2598
2023-05-14T00:14:46.381Z,74.0063
2023-05-14T00:15:49.259Z,72.3311
2023-05-14T00:16:51.607Z,73.6084
2023-05-14T00:17:54.312Z,76.5492
2023-05-14T00:18:56.859Z,75.2931
2023-05-14T00:19:59.465Z,74.0137
2023-05-14T00:21:02.056Z,71.0777
2023-05-14T00:22:04.777Z,75.5931
2023-05-14T00:23:07.279Z,74.2248
2023-05-14T00:24:09.898Z,74.3831
2023-05-14T00:25:12.480Z,74.6107
2023-05-14T00:26:15.156Z,76.2201
2023-05-14T00:27:17.701Z,71.2137
2023-05-14T00:28:20.328Z,73.3195
2023-05-14T00:29:22.907Z,72.5416
2023-05-14T00:30:25.719Z,71.7906
2023-05-14T00:31:28.165Z,77.9133
2023-05-14T00:32:30.791Z,72.6771
2023-05-14T00:33:33.370Z,74.7343
2023-05-14T00:34:35.986Z,72.1515
2023-05-14T00:35:38.556Z,75.2306
2023-05-14T00:36:41.405Z,69.6303
2023-05-14T00:37:43.764Z,68.7212
2023-05-14T00:38:46.409Z,69.2907
2023-05-14T00:39:48.989Z,73.8277
2023-05-14T00:40:51.639Z,73.4386
2023-05-14T00:41:54.195Z,76.6708
2023-05-14T00:42:56.929Z,77.5839
2023-05-14T00:43:59.426Z,75.7369
2023-05-14T00:45:02.037Z,78.4992
2023-05-14T00:46:04.619Z,75.1233
2023-05-14T00:49:01.968Z,70.2612
2023-05-14T00:50:04.610Z,78.9217
2023-05-14T00:51:07.175Z,74.8862
2023-05-14T00:52:09.812Z,77.5284
2023-05-14T00:53:12.398Z,76.1212
2023-05-14T00:54:15.060Z,70.2838
2023-05-14T00:55:17.618Z,68.8927
2023-05-14T00:56:20.249Z,68.8289
2023-05-14T00:57:22.831Z,64.2805
2023-05-14T00:58:25.481Z,62.4514
2023-05-14T00:59:28.065Z,60.3336
2023-05-14T01:00:30.717Z,62.6922
2023-05-14T01:01:33.309Z,63.6076
2023-05-14T01:02:35.967Z,63.1676
2023-05-14T01:03:38.584Z,58.0632
2023-05-14T01:04:41.137Z,58.7352
2023-05-14T01:05:43.738Z,64.6328
2023-05-14T01:06:46.349Z,69.4260
2023-05-14T01:07:48.925Z,64.2085
2023-05-14T01:08:51.556Z,65.5887
2023-05-14T01:09:54.149Z,63.9331
2023-05-14T01:10:56.765Z,67.8385
2023-05-14T01:11:59.362Z,71.6426
2023-05-14T01:13:01.987Z,75.9704
2023-05-14T01:14:04.605Z,73.3536
2023-05-14T01:15:07.192Z,73.8705
2023-05-14T01:16:10.292Z,72.9403
2023-05-14T01:17:12.407Z,74.7804
2023-05-14T01:18:14.989Z,77.6677
2023-05-14T01:19:17.676Z,74.8449
2023-05-14T01:20:20.224Z,75.3552
2023-05-14T01:21:22.840Z,73.4497
2023-05-14T01:22:25.441Z,74.0197
2023-05-14T01:23:28.052Z,72.4307
2023-05-14T01:24:30.645Z,78.8198
2023-05-14T01:25:33.266Z,75.1724
2023-05-14T01:26:35.842Z,73.9738
2023-05-14T01:27:38.468Z,68.6633
2023-05-14T01:28:41.070Z,67.0983
2023-05-14T01:29:43.704Z,70.4582
2023-05-14T01:30:46.267Z,70.3188
2023-05-14T01:31:48.938Z,69.2366
2023-05-14T01:32:51.674Z,67.6232
2023-05-14T01:33:54.115Z,66.6785
2023-05-14T01:34:56.705Z,68.8799
2023-05-14T01:35:59.337Z,70.4242
2023-05-14T01:37:02.014Z,67.1247
2023-05-14T01:38:04.538Z,66.0011
2023-05-14T01:39:07.153Z,68.3146
2023-05-14T01:40:09.826Z,66.5082
2023-05-14T01:41:12.359Z,68.0909
2023-05-14T01:42:14.946Z,67.4227
2023-05-14T01:43:17.589Z,67.2049
2023-05-14T01:44:20.149Z,64.9652
2023-05-14T01:45:22.772Z,65.9168
2023-05-14T01:46:25.389Z,65.4817
2023-05-14T01:47:27.993Z,62.8535
2023-05-14T01:48:30.588Z,60.7323
2023-05-14T01:49:33.206Z,64.6252
2023-05-14T01:50:35.798Z,64.0584
2023-05-14T01:51:38.424Z,61.4950
2023-05-14T01:52:41.009Z,60.1856
2023-05-14T01:53:43.630Z,61.1503
2023-05-14T01:54:46.235Z,62.2046
2023-05-14T01:55:48.866Z,63.0624
2023-05-14T01:56:51.450Z,64.0221
2023-05-14T01:57:54.077Z,63.8254
2023-05-14T01:58:56.654Z,64.6503
2023-05-14T01:59:59.290Z,64.0099
2023-05-14T02:01:01.947Z,65.6313
2023-05-14T02:02:04.502Z,67.1705
2023-05-14T02:03:07.165Z,65.0279
2023-05-14T02:04:09.761Z,68.6552
2023-05-14T02:05:12.310Z,70.4370
2023-05-14T02:06:14.942Z,68.5004
2023-05-14T02:07:17.526Z,60.5665
2023-05-14T02:08:20.159Z,63.6112
2023-05-14T02:09:22.750Z,67.1595
2023-05-14T02:10:25.649Z,64.1466
2023-05-14T02:11:27.975Z,65.0545
2023-05-14T02:12:30.614Z,61.7409
2023-05-14T02:13:33.195Z,61.2816
2023-05-14T02:14:35.836Z,61.2983
2023-05-14T02:15:38.441Z,58.0215
2023-05-14T02:16:41.036Z,60.6780
2023-05-14T02:17:43.672Z,62.5567
2023-05-14T02:18:46.278Z,61.1836
2023-05-14T02:21:32.751Z,55.3391
2023-05-14T02:22:35.346Z,63.2875
2023-05-14T02:23:41.856Z,61.2729
2023-05-14T02:24:40.566Z,60.6166
2023-05-14T02:25:43.307Z,59.8176
2023-05-14T02:26:45.978Z,62.7713
2023-05-14T02:27:48.442Z,58.0623
2023-05-14T02:28:51.026Z,56.9008
2023-05-14T02:29:53.708Z,62.5914
2023-05-14T02:30:56.260Z,61.5033
2023-05-14T02:31:59.037Z,62.0428
2023-05-14T02:33:01.526Z,62.3666
2023-05-14T02:34:04.118Z,57.2880
2023-05-14T02:35:06.728Z,57.2219
2023-05-14T02:36:09.318Z,60.8909
2023-05-14T02:37:11.904Z,60.9696
2023-05-14T02:38:14.538Z,61.7681
2023-05-14T02:39:17.128Z,59.0445
2023-05-14T02:40:19.767Z,62.3212
2023-05-14T02:41:22.352Z,59.1637
2023-05-14T02:42:24.982Z,61.3873
2023-05-14T02:43:27.573Z,63.3798
2023-05-14T02:44:30.450Z,60.4761
2023-05-14T02:45:32.806Z,62.4954
2023-05-14T02:46:35.569Z,61.4650
2023-05-14T02:47:38.429Z,63.1606
2023-05-14T02:48:40.652Z,61.6490
2023-05-14T02:49:43.249Z,58.6452
2023-05-14T02:50:45.888Z,63.2416
2023-05-14T02:51:48.457Z,62.1473
2023-05-14T02:52:51.119Z,61.2354
2023-05-14T02:53:53.675Z,59.5704
2023-05-14T02:54:56.315Z,62.7031
2023-05-14T02:55:58.894Z,58.8012
2023-05-14T02:57:01.530Z,63.5465
2023-05-14T02:58:04.116Z,62.1423
2023-05-14T02:59:06.768Z,59.3677
2023-05-14T03:00:09.366Z,62.9176
2023-05-14T03:01:11.994Z,63.8726
2023-05-14T03:02:14.581Z,61.1442
2023-05-14T03:03:17.283Z,62.2276
2023-05-14T03:04:19.788Z,59.1837
2023-05-14T03:05:22.424Z,64.8474
2023-05-14T03:06:25.024Z,62.7158
2023-05-14T03:07:27.655Z,63.5018
2023-05-14T03:08:30.256Z,60.0248
2023-05-14T03:09:32.873Z,64.3897
2023-05-14T03:10:35.464Z,67.1471
2023-05-14T03:11:38.100Z,66.5139
2023-05-14T03:12:40.712Z,67.1822
2023-05-14T03:13:43.326Z,64.6936
2023-05-14T03:14:46.036Z,62.9324
2023-05-14T03:15:48.563Z,64.4980
2023-05-14T03:16:51.175Z,62.4023
2023-05-14T03:17:53.863Z,63.0922
2023-05-14T03:18:56.417Z,62.6185
2023-05-14T03:19:59.023Z,68.0963
2023-05-14T03:21:01.601Z,66.7018
2023-05-14T03:22:04.246Z,63.2128
2023-05-14T03:23:06.833Z,66.8012
2023-05-14T03:24:09.765Z,66.5961
2023-05-14T03:25:12.051Z,66.3224
2023-05-14T03:26:14.689Z,69.1820
2023-05-14T03:27:17.274Z,67.5638
2023-05-14T03:28:19.920Z,64.2670
2023-05-14T03:29:22.512Z,69.1424
2023-05-14T03:30:25.383Z,67.2942
2023-05-14T03:31:27.761Z,67.3036
2023-05-14T03:32:30.393Z,69.5379
2023-05-14T03:33:32.972Z,69.5675
2023-05-14T03:34:35.596Z,72.3707
2023-05-14T03:35:38.186Z,69.4328
2023-05-14T03:36:40.836Z,70.0683
2023-05-14T03:37:43.424Z,70.7999
2023-05-14T03:38:46.062Z,72.0072
2023-05-14T03:39:48.659Z,68.6678
2023-05-14T03:40:51.317Z,66.9489
2023-05-14T03:41:53.877Z,65.8580
2023-05-14T03:42:56.520Z,66.6040
2023-05-14T03:43:59.148Z,66.6219
2023-05-14T03:45:01.752Z,66.6493
2023-05-14T03:46:04.359Z,63.5008
2023-05-14T03:47:06.979Z,64.3583
2023-05-14T03:48:09.661Z,65.5135
2023-05-14T03:49:12.226Z,65.4079
2023-05-14T03:50:14.835Z,64.7200
2023-05-14T03:51:17.476Z,68.4308
2023-05-14T03:52:20.036Z,67.6143
2023-05-14T03:53:22.783Z,67.2420
2023-05-14T03:54:25.274Z,69.0291
2023-05-14T03:55:27.914Z,68.2119
2023-05-14T03:56:30.504Z,67.2030
2023-05-14T03:57:33.153Z,67.1786
2023-05-14T03:58:35.764Z,63.1520
2023-05-14T03:59:38.352Z,66.7909
2023-05-14T04:00:40.952Z,66.3171
2023-05-14T04:01:43.596Z,65.2658
2023-05-14T04:02:46.236Z,65.4516
2023-05-14T04:03:48.981Z,66.0368
2023-05-14T04:04:51.519Z,65.1984
2023-05-14T04:05:54.043Z,66.9351
2023-05-14T04:06:56.654Z,65.5863
2023-05-14T04:07:59.283Z,65.7677
2023-05-14T04:09:01.886Z,62.6792
2023-05-14T04:10:04.831Z,67.4103
2023-05-14T04:11:07.117Z,65.8690
2023-05-14T04:12:09.750Z,65.3347
2023-05-14T04:13:12.407Z,63.8582
2023-05-14T04:14:14.993Z,66.8229
2023-05-14T04:16:47.214Z,59.5474
2023-05-14T04:17:49.779Z,69.4389
2023-05-14T04:18:52.400Z,69.6926
2023-05-14T04:19:54.937Z,67.6965
2023-05-14T04:20:57.578Z,69.4917
2023-05-14T04:22:00.196Z,68.7515
2023-05-14T04:23:02.798Z,67.6786
2023-05-14T04:24:05.430Z,68.1439
2023-05-14T04:25:08.021Z,71.5017
2023-05-14T04:26:10.658Z,68.7952
2023-05-14T04:27:13.249Z,65.7795
2023-05-14T04:28:15.898Z,67.3703
2023-05-14T04:29:18.476Z,68.5608
2023-05-14T04:30:21.317Z,67.7379
2023-05-14T04:31:23.949Z,70.4918
2023-05-14T04:32:26.365Z,68.4610
2023-05-14T04:33:28.946Z,69.6662
2023-05-14T04:34:31.571Z,68.3817
2023-05-14T04:35:34.180Z,71.4876
2023-05-14T04:36:36.797Z,73.9788
2023-05-14T04:37:39.401Z,73.0987
2023-05-14T04:38:42.029Z,68.1593
2023-05-14T04:39:44.615Z,68.8003
2023-05-14T04:40:47.271Z,69.5660
2023-05-14T04:41:49.845Z,71.4572
2023-05-14T04:42:52.502Z,72.6010
2023-05-14T04:43:55.318Z,71.6069
2023-05-14T04:44:57.714Z,70.6730
2023-05-14T04:46:00.382Z,76.7475
2023-05-14T04:47:02.931Z,71.3469
2023-05-14T04:48:05.560Z,72.0887
2023-05-14T04:49:08.164Z,72.2467
2023-05-14T04:50:10.756Z,71.5388
2023-05-14T04:51:13.399Z,71.7727
2023-05-14T04:52:15.973Z,70.8290
2023-05-14T04:53:18.732Z,67.2383
2023-05-14T04:54:21.227Z,66.5903
2023-05-14T04:55:23.832Z,65.8717
2023-05-14T04:56:26.411Z,67.1704
2023-05-14T04:57:29.073Z,62.8608
2023-05-14T04:58:33.739Z,66.2816
2023-05-14T04:59:34.270Z,66.2670
2023-05-14T05:00:36.869Z,66.3718
2023-05-14T05:01:39.617Z,69.8823
2023-05-14T05:02:42.167Z,64.0098
2023-05-14T05:03:44.789Z,66.8338
2023-05-14T05:04:47.342Z,70.1804
2023-05-14T05:05:49.949Z,65.6760
2023-05-14T05:06:52.528Z,65.8257
2023-05-14T05:07:55.166Z,68.2475
2023-05-14T05:08:58.066Z,68.5670
2023-05-14T05:10:00.396Z,66.4029
2023-05-14T05:11:02.979Z,67.1156
2023-05-14T05:12:05.650Z,68.7848
2023-05-14T05:13:08.195Z,67.2964
2023-05-14T05:14:10.843Z,69.9205
2023-05-14T05:16:23.662Z,65.8429
2023-05-14T05:17:26.314Z,67.4983
2023-05-14T05:18:28.882Z,68.4708
2023-05-14T05:19:42.514Z,68.7165
2023-05-14T05:20:34.093Z,70.4790
2023-05-14T05:21:36.725Z,65.8606
2023-05-14T05:22:39.311Z,65.3111
2023-05-14T05:23:41.958Z,68.7051
2023-05-14T05:24:44.540Z,64.7873
2023-05-14T05:25:47.170Z,59.2497
2023-05-14T05:26:49.758Z,65.1667
2023-05-14T05:27:52.401Z,66.6500
2023-05-14T05:28:55.006Z,68.5065
2023-05-14T05:29:57.640Z,66.3713
2023-05-14T05:31:00.274Z,65.6565
2023-05-14T05:32:02.856Z,66.6828
2023-05-14T05:33:05.508Z,71.2116
2023-05-14T05:34:08.070Z,63.2042
2023-05-14T05:35:10.664Z,63.8613
2023-05-14T05:36:13.293Z,66.4909
2023-05-14T05:37:15.883Z,66.6994
2023-05-14T05:38:18.545Z,66.0268
2023-05-14T05:39:21.111Z,64.7151
2023-05-14T05:40:23.951Z,64.6962
2023-05-14T05:41:26.328Z,66.0432
2023-05-14T05:42:28.965Z,67.3272
2023-05-14T05:43:31.573Z,70.6326
2023-05-14T05:44:34.194Z,62.8342
2023-05-14T05:45:36.777Z,64.5523
2023-05-14T05:46:39.547Z,64.6484
2023-05-14T05:47:42.039Z,67.5883
2023-05-14T05:48:44.643Z,63.8649
2023-05-14T05:49:47.233Z,64.8028
2023-05-14T05:50:49.873Z,72.8526
2023-05-14T05:51:52.498Z,68.5682
2023-05-14T05:52:55.087Z,71.4721
2023-05-14T05:53:57.698Z,66.0411
2023-05-14T05:55:00.325Z,68.2712
2023-05-14T05:56:02.890Z,72.4309
2023-05-14T05:57:05.523Z,68.8684
2023-05-14T05:58:08.114Z,70.0319
2023-05-14T05:59:10.762Z,69.7043
2023-05-14T06:00:13.387Z,69.2038
2023-05-14T06:01:15.980Z,67.8457
2023-05-14T06:02:18.587Z,69.7010
2023-05-14T06:03:21.214Z,66.4463
2023-05-14T06:04:23.758Z,68.7774
2023-05-14T06:05:26.440Z,67.5665
2023-05-14T06:06:28.982Z,70.1585
2023-05-14T06:07:31.609Z,69.4456
2023-05-14T06:08:34.195Z,70.0978
2023-05-14T06:09:36.837Z,64.7880
2023-05-14T06:10:39.423Z,70.3245
2023-05-14T06:11:42.062Z,69.5437
2023-05-14T06:12:44.624Z,72.0008
2023-05-14T06:13:47.267Z,74.8029
2023-05-14T06:14:49.861Z,73.6385
2023-05-14T06:15:52.479Z,72.9313
2023-05-14T06:16:55.095Z,71.0153
2023-05-14T06:17:57.775Z,73.1062
2023-05-14T06:19:00.408Z,78.1223
2023-05-14T06:20:02.899Z,75.6525
2023-05-14T06:21:05.753Z,71.0510
2023-05-14T06:22:08.124Z,74.0798
2023-05-14T06:23:10.765Z,74.0263
2023-05-14T06:24:13.336Z,72.2382
2023-05-14T06:25:15.978Z,73.9487
2023-05-14T06:26:18.570Z,76.9507
2023-05-14T06:27:21.178Z,75.5859
2023-05-14T06:28:23.767Z,74.4009
2023-05-14T06:29:26.406Z,69.4368
2023-05-14T06:30:29.015Z,75.4143
2023-05-14T06:31:31.651Z,72.6956
2023-05-14T06:32:34.206Z,75.1148
2023-05-14T06:33:36.822Z,73.2952
2023-05-14T06:34:39.407Z,73.5972
2023-05-14T06:35:42.038Z,72.5878
2023-05-14T06:36:44.627Z,74.1450
2023-05-14T06:37:47.235Z,73.4919
2023-05-14T06:38:49.824Z,74.6307
2023-05-14T06:39:52.452Z,74.1718
2023-05-14T06:40:55.032Z,75.6590
2023-05-14T06:41:57.658Z,77.2218
2023-05-14T06:43:00.243Z,75.9017
2023-05-14T06:44:02.864Z,77.5196
2023-05-14T06:45:05.444Z,79.1960
2023-05-14T06:46:08.073Z,78.4016
2023-05-14T06:47:10.655Z,77.9654
2023-05-14T06:48:13.429Z,79.1041
2023-05-14T06:49:15.908Z,76.0139
2023-05-14T06:50:18.515Z,76.6287
2023-05-14T06:51:21.088Z,74.7898
2023-05-14T06:52:23.727Z,72.5108
2023-05-14T06:53:26.285Z,68.2479
2023-05-14T06:54:28.908Z,73.7185
2023-05-14T06:55:31.489Z,68.3946
2023-05-14T06:56:34.113Z,67.0868
2023-05-14T06:57:38.528Z,66.7635
2023-05-14T06:58:39.314Z,68.6484
2023-05-14T06:59:41.892Z,72.0828
2023-05-14T07:00:44.550Z,69.3313
2023-05-14T07:01:47.162Z,70.4614
2023-05-14T07:02:49.757Z,69.4039
2023-05-14T07:03:52.374Z,67.7466
2023-05-14T07:04:54.988Z,64.7187
2023-05-14T07:05:57.545Z,67.4538
2023-05-14T07:07:00.171Z,66.9393
2023-05-14T07:08:02.728Z,66.3613
2023-05-14T07:09:05.379Z,59.6383
2023-05-14T07:10:07.930Z,58.6196
2023-05-14T07:11:10.549Z,59.8853
2023-05-14T07:12:13.131Z,60.3622
2023-05-14T07:13:15.763Z,55.1667
2023-05-14T07:14:18.334Z,54.0429
2023-05-14T07:15:20.948Z,53.6382
2023-05-14T07:16:23.540Z,56.7382
2023-05-14T07:17:26.186Z,53.4285
2023-05-14T07:18:28.751Z,54.2470
2023-05-14T07:19:31.330Z,50.0000
2023-05-14T07:20:33.918Z,50.1393
2023-05-14T07:21:36.596Z,50.5713
2023-05-14T07:22:39.100Z,48.8531
2023-05-14T07:23:41.720Z,47.9844
2023-05-14T07:24:44.308Z,48.0791
2023-05-14T07:25:46.928Z,47.9057
2023-05-14T07:26:49.524Z,48.3927
2023-05-14T07:27:52.134Z,52.2679
2023-05-14T07:28:54.845Z,51.1674
2023-05-14T07:29:57.372Z,51.3752
2023-05-14T07:30:59.992Z,51.8172
2023-05-14T07:32:02.568Z,51.2786
2023-05-14T07:33:05.209Z,49.7745
2023-05-14T07:34:07.752Z,52.3302
2023-05-14T07:35:10.360Z,52.7086
2023-05-14T07:36:12.963Z,50.7658
2023-05-14T07:37:15.538Z,52.7313
2023-05-14T07:38:18.285Z,51.4074
2023-05-14T07:39:20.764Z,51.1892
2023-05-14T07:40:23.683Z,48.2039
2023-05-14T07:41:25.955Z,46.4066
2023-05-14T07:42:35.944Z,47.5153
2023-05-14T07:43:31.159Z,47.1808
2023-05-14T07:44:33.785Z,47.7400
2023-05-14T07:45:36.342Z,50.1447
2023-05-14T07:46:38.965Z,55.9441
2023-05-14T07:47:41.641Z,54.7105
2023-05-14T07:48:44.226Z,52.6253
2023-05-14T07:49:46.753Z,50.2005
2023-05-14T07:50:49.382Z,49.8430
2023-05-14T07:51:51.949Z,48.6313
2023-05-14T07:52:54.594Z,51.2729
2023-05-14T07:53:57.150Z,53.6048
2023-05-14T07:54:59.778Z,52.6241
2023-05-14T07:56:02.340Z,52.3618
2023-05-14T07:57:04.967Z,53.3263
2023-05-14T07:58:07.542Z,49.9829
2023-05-14T07:59:10.168Z,49.7724
2023-05-14T08:00:12.740Z,40.6644
2023-05-14T08:01:15.362Z,37.5429
2023-05-14T08:02:17.991Z,37.7925
2023-05-14T08:03:20.634Z,39.9210
2023-05-14T08:06:21.314Z,38.3451
2023-05-14T08:07:23.930Z,41.5290
2023-05-14T08:08:26.505Z,39.9076
2023-05-14T08:09:29.127Z,39.8983
2023-05-14T08:10:31.763Z,40.4231
2023-05-14T08:11:34.333Z,39.5092
2023-05-14T08:12:36.908Z,40.0201
2023-05-14T08:13:39.538Z,36.6834
2023-05-14T08:14:42.150Z,34.4555
2023-05-14T08:15:44.762Z,32.4878
2023-05-14T08:16:47.356Z,32.5638
2023-05-14T08:17:50.024Z,36.2741
2023-05-14T08:18:52.548Z,34.0148
2023-05-14T08:19:55.139Z,33.4547
2023-05-14T08:20:57.906Z,32.7385
2023-05-14T08:22:00.341Z,34.7490
2023-05-14T08:23:02.905Z,37.3868
2023-05-14T08:25:34.792Z,103.3236
2023-05-14T08:26:37.409Z,76.7462
2023-05-14T08:27:39.994Z,65.3704
2023-05-14T08:28:42.637Z,88.3332
2023-05-14T08:29:45.187Z,57.8819
2023-05-14T08:30:47.819Z,45.4222
2023-05-14T08:31:50.398Z,33.0925
2023-05-14T08:32:53.095Z,31.9246
2023-05-14T08:33:55.573Z,33.5069
2023-05-14T08:34:58.207Z,35.7314
2023-05-14T08:36:00.775Z,36.1954
2023-05-14T08:37:03.407Z,32.8461
2023-05-14T08:38:06.001Z,50.1329
2023-05-14T08:39:08.714Z,44.4427
2023-05-14T08:40:11.183Z,67.3010
2023-05-14T08:41:13.799Z,30.2750
2023-05-14T08:42:16.368Z,30.5408
2023-05-14T08:43:18.984Z,29.2619
2023-05-14T08:44:21.560Z,29.0681
2023-05-14T08:45:24.171Z,28.9985
2023-05-14T08:46:26.751Z,28.4076
2023-05-14T08:47:29.378Z,28.8713
2023-05-14T08:48:32.095Z,26.7052
2023-05-14T08:49:34.573Z,59.7846
2023-05-14T08:50:37.134Z,32.9831
2023-05-14T08:51:39.744Z,30.5368
2023-05-14T08:52:42.323Z,27.8363
2023-05-14T08:53:44.948Z,34.2763
2023-05-14T08:54:47.511Z,33.3891
2023-05-14T08:55:50.122Z,30.1741
2023-05-14T08:56:52.702Z,29.8583
2023-05-14T08:57:55.316Z,28.9405
2023-05-14T08:58:57.872Z,26.1281
2023-05-14T09:00:00.510Z,24.4393
2023-05-14T09:01:03.063Z,23.4881
2023-05-14T09:02:05.766Z,21.5329
2023-05-14T09:03:08.305Z,23.8129
2023-05-14T09:04:10.954Z,21.3840
2023-05-14T09:05:13.480Z,21.5115
2023-05-14T09:06:16.056Z,21.0096
2023-05-14T09:07:18.621Z,21.1400
2023-05-14T09:08:21.339Z,21.6038
2023-05-14T09:09:23.814Z,21.3339
2023-05-14T09:10:27.022Z,22.5304
2023-05-14T09:11:28.995Z,22.8373
2023-05-14T09:12:31.618Z,22.3604
2023-05-14T09:13:34.193Z,23.9396
2023-05-14T09:14:36.808Z,23.7443
2023-05-14T09:15:39.372Z,23.9628
2023-05-14T09:16:42.041Z,26.8409
2023-05-14T09:17:44.589Z,29.4767
2023-05-14T09:18:47.233Z,33.3446
2023-05-14T09:19:49.753Z,31.6957
2023-05-14T09:20:52.404Z,33.0232
2023-05-14T09:21:54.949Z,31.7089
2023-05-14T09:22:57.575Z,31.5319
2023-05-14T09:24:00.164Z,33.2189
2023-05-14T09:25:02.770Z,31.6883
2023-05-14T09:26:05.359Z,30.8710
2023-05-14T09:27:07.952Z,30.1722
2023-05-14T09:28:10.544Z,28.1255
2023-05-14T09:29:13.170Z,28.4664
2023-05-14T09:31:49.876Z,27.5490
2023-05-14T09:32:52.420Z,30.4369
2023-05-14T09:35:19.401Z,26.8007
2023-05-14T09:36:22.016Z,29.7448
2023-05-14T09:37:24.591Z,27.2944
2023-05-14T09:38:27.213Z,31.9294
2023-05-14T09:39:29.796Z,30.0583
2023-05-14T09:40:32.424Z,29.9317
2023-05-14T09:41:35.069Z,31.4301
2023-05-14T09:42:37.617Z,32.3302
2023-05-14T09:43:40.183Z,30.8380
2023-05-14T09:44:42.809Z,33.7711
2023-05-14T09:45:45.382Z,34.8586
2023-05-14T09:46:48.071Z,39.6301
2023-05-14T09:47:50.687Z,41.3431
2023-05-14T09:48:53.210Z,38.6529
2023-05-14T09:49:55.816Z,38.1489
2023-05-14T09:50:58.498Z,36.9218
2023-05-14T09:52:01.064Z,41.2393
2023-05-14T09:53:03.600Z,42.3351
2023-05-14T09:54:06.169Z,41.1940
2023-05-14T09:55:08.791Z,42.0415
2023-05-14T09:56:11.379Z,39.0020
2023-05-14T09:57:14.242Z,36.8186
2023-05-14T09:58:16.573Z,38.6316
2023-05-14T09:59:19.181Z,37.6396
2023-05-14T10:00:22.206Z,38.8312
2023-05-14T10:01:24.423Z,36.0960
2023-05-14T10:02:26.960Z,35.8409
2023-05-14T10:03:29.573Z,36.4656
2023-05-14T10:04:32.163Z,36.3640
2023-05-14T10:05:34.798Z,34.1438
2023-05-14T10:06:37.327Z,35.5016
2023-05-14T10:07:39.973Z,36.4965
2023-05-14T10:08:42.524Z,34.8566
2023-05-14T10:09:45.310Z,32.9023
2023-05-14T10:10:47.716Z,33.0605
2023-05-14T10:11:50.333Z,34.5012
2023-05-14T10:12:52.920Z,34.9799
2023-05-14T10:13:55.523Z,35.5932
2023-05-14T10:15:00.211Z,35.1088
2023-05-14T10:16:00.698Z,32.5482
2023-05-14T10:17:03.407Z,33.7808
2023-05-14T10:18:05.990Z,33.8647
2023-05-14T10:19:08.560Z,32.7580
2023-05-14T10:20:11.111Z,32.9019
2023-05-14T10:21:13.720Z,34.6500
2023-05-14T10:22:16.446Z,34.4772
2023-05-14T10:23:18.886Z,32.8452
2023-05-14T10:24:21.460Z,33.3537
2023-05-14T10:25:24.086Z,32.4417
2023-05-14T10:26:26.645Z,30.8550
2023-05-14T10:27:29.258Z,33.8187
2023-05-14T10:28:31.858Z,35.6574
2023-05-14T10:29:34.465Z,33.8429
2023-05-14T10:30:37.026Z,35.4206
2023-05-14T10:31:39.782Z,33.9999
2023-05-14T10:32:42.331Z,33.8098
2023-05-14T10:33:44.831Z,31.7723
2023-05-14T10:34:47.397Z,33.7370
2023-05-14T10:35:50.039Z,31.4582
2023-05-14T10:36:52.586Z,35.4262
2023-05-14T10:37:55.218Z,35.8653
2023-05-14T10:38:57.788Z,36.4164
2023-05-14T10:40:00.397Z,32.4754
2023-05-14T10:41:02.980Z,32.2007
2023-05-14T10:43:49.249Z,30.2974
2023-05-14T10:44:51.877Z,31.6258
2023-05-14T10:45:54.444Z,32.5268
2023-05-14T10:48:11.907Z,29.0118
2023-05-14T10:49:14.468Z,32.1473
2023-05-14T10:50:17.057Z,28.6624
2023-05-14T10:51:19.711Z,29.6030
2023-05-14T10:52:22.274Z,27.8398
2023-05-14T10:53:24.827Z,26.4810
2023-05-14T10:54:27.472Z,24.1236
2023-05-14T10:55:30.036Z,25.4860
2023-05-14T10:56:32.653Z,27.3370
2023-05-14T10:57:35.225Z,25.2681
2023-05-14T10:58:37.854Z,24.4765
2023-05-14T10:59:40.436Z,21.6794
2023-05-14T11:00:43.048Z,22.5299
2023-05-14T11:01:45.666Z,25.8074
2023-05-14T11:02:48.293Z,24.9428
2023-05-14T11:03:50.825Z,21.5984
2023-05-14T11:04:53.431Z,22.8589
2023-05-14T11:05:55.993Z,23.0321
2023-05-14T11:06:58.625Z,27.0124
2023-05-14T11:08:01.189Z,22.2552
2023-05-14T11:09:03.831Z,21.5989
2023-05-14T11:10:06.406Z,22.1349
2023-05-14T11:11:09.010Z,22.4084
2023-05-14T11:12:11.582Z,22.1123
2023-05-14T11:13:14.207Z,21.1426
2023-05-14T11:14:16.786Z,21.1050
2023-05-14T11:15:19.410Z,22.1891
2023-05-14T11:16:24.007Z,22.1399
2023-05-14T11:17:24.632Z,22.3342
2023-05-14T11:18:27.191Z,23.6134
2023-05-14T11:19:29.780Z,22.5003
2023-05-14T11:20:32.357Z,20.7168
2023-05-14T11:21:35.003Z,22.7584
2023-05-14T11:22:37.545Z,21.5110
2023-05-14T11:23:40.157Z,22.2449
2023-05-14T11:24:42.733Z,19.4529
2023-05-14T11:25:45.389Z,20.4112
2023-05-14T11:26:47.928Z,19.6212
2023-05-14T11:27:50.578Z,22.6360
2023-05-14T11:28:53.141Z,19.6234
2023-05-14T11:29:55.780Z,19.7111
2023-05-14T11:30:58.327Z,21.5096
2023-05-14T11:32:00.994Z,21.8990
2023-05-14T11:34:47.180Z,20.3402
2023-05-14T11:35:49.758Z,20.5037
2023-05-14T11:36:52.381Z,21.1430
2023-05-14T11:37:54.953Z,21.1603
2023-05-14T11:38:57.567Z,19.9048
2023-05-14T11:40:00.201Z,20.1205
2023-05-14T11:41:02.795Z,20.2478
2023-05-14T11:42:05.339Z,20.0077
2023-05-14T11:43:07.965Z,20.5837
2023-05-14T11:44:10.544Z,20.3916
2023-05-14T11:45:13.240Z,19.3345
2023-05-14T11:46:15.808Z,18.3288
2023-05-14T11:47:18.412Z,18.2430
2023-05-14T11:48:20.942Z,17.2834
2023-05-14T11:49:23.580Z,18.6627
2023-05-14T11:50:26.374Z,19.7803
2023-05-14T11:51:28.764Z,20.7871
2023-05-14T11:52:31.343Z,19.6564
2023-05-14T11:53:33.962Z,17.5936
2023-05-14T11:56:01.001Z,16.7729
2023-05-14T11:57:03.798Z,18.0618
2023-05-14T11:58:06.193Z,18.9163
2023-05-14T11:59:08.768Z,22.1374
2023-05-14T12:00:11.414Z,22.8264
2023-05-14T12:01:13.981Z,22.1594
2023-05-14T12:02:16.614Z,20.1350
2023-05-14T12:03:19.333Z,20.0376
2023-05-14T12:04:21.877Z,19.8232
2023-05-14T12:05:24.375Z,17.9752
2023-05-14T12:06:27.067Z,17.9083
2023-05-14T12:07:29.590Z,17.6954
2023-05-14T12:08:32.198Z,19.0622
2023-05-14T12:09:34.783Z,18.1341
2023-05-14T12:10:37.399Z,17.6975
2023-05-14T12:11:39.987Z,21.4541
2023-05-14T12:12:42.595Z,20.8790
2023-05-14T12:13:45.187Z,15.7254
2023-05-14T12:14:47.904Z,13.8538
2023-05-14T12:15:50.672Z,14.2110
2023-05-14T12:16:53.003Z,13.9073
2023-05-14T12:17:55.601Z,14.4992
2023-05-14T12:18:58.244Z,15.4982
2023-05-14T12:20:00.769Z,14.0022
2023-05-14T12:21:03.405Z,14.8073
2023-05-14T12:22:05.990Z,13.9599
2023-05-14T12:23:08.605Z,13.1316
2023-05-14T12:24:11.164Z,13.6683
2023-05-14T12:25:14.134Z,14.5400
2023-05-14T12:26:16.426Z,13.8233
2023-05-14T12:27:18.981Z,14.9086
2023-05-14T12:28:21.555Z,16.8148
2023-05-14T12:29:24.180Z,15.2139
2023-05-14T12:30:26.761Z,14.2962
2023-05-14T12:31:29.433Z,13.5306
2023-05-14T12:32:32.012Z,13.6276
2023-05-14T12:33:34.597Z,12.3696
2023-05-14T12:34:37.683Z,14.6998
2023-05-14T12:35:39.785Z,12.6318
2023-05-14T12:36:42.351Z,13.9615
2023-05-14T12:37:44.989Z,14.2824
2023-05-14T12:38:47.543Z,14.1320
2023-05-14T12:39:50.192Z,14.6439
2023-05-14T12:40:53.203Z,14.2099
2023-05-14T12:41:55.368Z,15.2243
2023-05-14T12:42:57.936Z,14.2763
2023-05-14T12:44:00.581Z,14.8978
2023-05-14T12:45:03.145Z,14.2662
2023-05-14T12:46:05.769Z,14.2175
2023-05-14T12:47:08.374Z,15.5215
2023-05-14T12:48:11.017Z,16.5855
2023-05-14T12:49:13.531Z,16.6826
2023-05-14T12:50:16.349Z,15.9734
2023-05-14T12:51:18.728Z,17.3210
2023-05-14T12:52:36.158Z,17.9198
2023-05-14T12:53:23.967Z,16.5666
2023-05-14T12:54:26.532Z,17.5952
2023-05-14T12:55:29.107Z,16.9521
2023-05-14T12:56:31.724Z,17.6192
2023-05-14T12:57:34.294Z,18.4787